Time;durP1;ratioP1;P1;durP2;ratioP2;P2;SDS_P1;SDS_P2;PMS_P1;PMS_P2;Temp;Humidity;BMP_temperature;BMP_pressure;BME280_temperature;BME280_humidity;BME280_pressure;Samples;Min_cycle;Max_cycle;Signal;HPM_P1;HPM_P2
2024/04/08 00:00:47;;;;;;;;;;;18.10;58.70;;;;;;20922213;28;19927;-62
2024/04/08 00:10:48;;;;;;;;;;;18.00;58.60;;;;;;20920096;28;19908;-62
2024/04/08 00:20:59;;;;;;;;;;;18.00;58.20;;;;;;20919219;28;19921;-62
2024/04/08 00:31:04;;;;;;;;;;;18.00;57.80;;;;;;20918604;28;19928;-62
2024/04/08 00:41:05;;;;;;;;;;;17.90;57.60;;;;;;20917657;28;19921;-63
2024/04/08 00:51:06;;;;;;;;;;;17.80;57.90;;;;;;20915758;28;19974;-64
2024/04/08 01:01:08;;;;;;;;;;;17.70;59.70;;;;;;20917410;28;19920;-63
2024/04/08 01:11:10;;;;;;;;;;;17.60;60.20;;;;;;20916530;28;19954;-63
2024/04/08 01:21:11;;;;;;;;;;;17.40;60.30;;;;;;20914301;28;19996;-62
2024/04/08 01:31:15;;;;;;;;;;;17.30;60.10;;;;;;20913668;28;19912;-63
2024/04/08 01:41:16;;;;;;;;;;;17.20;60.30;;;;;;20914554;28;19924;-64
2024/04/08 01:51:17;;;;;;;;;;;17.10;60.30;;;;;;20914001;28;20250;-63
2024/04/08 02:01:19;;;;;;;;;;;17.00;60.70;;;;;;20924563;28;19924;-63
2024/04/08 02:11:20;;;;;;;;;;;16.90;61.20;;;;;;20941189;28;19919;-62
2024/04/08 02:21:21;;;;;;;;;;;16.70;61.40;;;;;;20940847;28;19956;-62
2024/04/08 02:31:22;;;;;;;;;;;16.70;61.80;;;;;;20940179;28;20388;-62
2024/04/08 02:41:23;;;;;;;;;;;16.60;61.70;;;;;;20938780;28;19917;-63
2024/04/08 02:51:24;;;;;;;;;;;16.40;61.70;;;;;;20938214;28;20007;-62
2024/04/08 03:01:25;;;;;;;;;;;16.30;62.30;;;;;;20938942;28;20433;-62
2024/04/08 03:11:28;;;;;;;;;;;16.20;62.20;;;;;;20933700;28;19996;-63
2024/04/08 03:21:29;;;;;;;;;;;16.20;62.10;;;;;;20925301;28;19947;-62
2024/04/08 03:31:31;;;;;;;;;;;16.10;61.80;;;;;;20924439;28;19920;-62
2024/04/08 03:41:32;;;;;;;;;;;16.20;61.80;;;;;;20919149;28;19918;-62
2024/04/08 03:51:33;;;;;;;;;;;16.20;61.40;;;;;;20838978;28;19932;-63
2024/04/08 04:01:34;;;;;;;;;;;16.00;61.40;;;;;;20839718;28;20378;-62
2024/04/08 04:11:35;;;;;;;;;;;16.00;61.70;;;;;;20838768;28;19913;-63
2024/04/08 04:21:36;;;;;;;;;;;15.70;61.50;;;;;;20814064;28;19948;-63
2024/04/08 04:31:44;;;;;;;;;;;15.80;61.40;;;;;;20751112;28;19952;-63
2024/04/08 04:41:46;;;;;;;;;;;15.70;62.00;;;;;;20752726;28;19921;-64
2024/04/08 04:51:47;;;;;;;;;;;15.70;62.70;;;;;;20752082;28;19929;-64
2024/04/08 05:01:49;;;;;;;;;;;15.70;64.10;;;;;;20751853;28;20004;-62
2024/04/08 05:11:50;;;;;;;;;;;15.40;64.50;;;;;;20750734;28;19944;-63
2024/04/08 05:21:51;;;;;;;;;;;15.10;65.40;;;;;;20750100;28;20015;-63
2024/04/08 05:31:52;;;;;;;;;;;15.10;65.40;;;;;;20749207;28;20386;-63
2024/04/08 05:41:53;;;;;;;;;;;15.10;65.20;;;;;;20750072;28;19917;-63
2024/04/08 05:51:54;;;;;;;;;;;15.00;65.80;;;;;;20750504;28;19934;-62
2024/04/08 06:01:55;;;;;;;;;;;14.90;65.70;;;;;;20749176;28;20012;-62
2024/04/08 06:11:56;;;;;;;;;;;14.70;66.20;;;;;;20748694;28;19956;-62
2024/04/08 06:21:57;;;;;;;;;;;14.80;66.10;;;;;;20747989;28;20015;-62
2024/04/08 06:31:59;;;;;;;;;;;14.70;66.80;;;;;;20746436;28;19913;-62
2024/04/08 06:42:00;;;;;;;;;;;14.70;67.20;;;;;;20745897;28;19918;-64
2024/04/08 06:52:01;;;;;;;;;;;14.70;67.50;;;;;;20840500;28;19924;-63
2024/04/08 07:02:04;;;;;;;;;;;15.00;67.10;;;;;;20842940;28;20442;-61
2024/04/08 07:12:05;;;;;;;;;;;15.50;66.40;;;;;;20842475;28;19920;-62
2024/04/08 07:22:07;;;;;;;;;;;15.90;64.80;;;;;;20840633;28;19928;-62
2024/04/08 07:32:09;;;;;;;;;;;16.20;63.90;;;;;;20839809;28;19913;-61
2024/04/08 07:42:10;;;;;;;;;;;16.30;62.60;;;;;;20839924;28;20401;-63
2024/04/08 07:52:13;;;;;;;;;;;;;;;;;;20839529;28;19971;-63
2024/04/08 08:03:34;;;;;;;;;;;16.50;60.20;;;;;;22647061;26;19936;-63
2024/04/08 08:13:35;;;;;;;;;;;16.90;59.40;;;;;;22645173;26;19960;-62
2024/04/08 08:23:35;;;;;;;;;;;17.00;56.80;;;;;;22644770;26;19929;-63
2024/04/08 08:33:36;;;;;;;;;;;17.00;55.00;;;;;;22645284;26;19996;-62
2024/04/08 08:43:38;;;;;;;;;;;17.20;50.00;;;;;;22646745;26;19928;-63
2024/04/08 08:53:39;;;;;;;;;;;17.30;45.70;;;;;;22642778;26;20352;-61
2024/04/08 09:03:40;;;;;;;;;;;17.40;40.40;;;;;;22645121;26;19960;-62
2024/04/08 09:13:41;;;;;;;;;;;17.60;40.70;;;;;;22587905;26;19935;-62
2024/04/08 09:23:48;;;;;;;;;;;17.70;40.20;;;;;;22579441;26;19928;-63
2024/04/08 09:33:49;;;;;;;;;;;17.90;40.80;;;;;;22556011;26;19935;-54
2024/04/08 09:43:50;;;;;;;;;;;18.00;41.60;;;;;;22570549;26;19939;-60
2024/04/08 09:53:53;;;;;;;;;;;18.20;44.30;;;;;;22569711;26;19928;-62
2024/04/08 10:03:57;;;;;;;;;;;18.20;42.10;;;;;;22571807;26;19973;-63
2024/04/08 10:13:58;;;;;;;;;;;18.30;42.70;;;;;;22566209;26;19928;-63
2024/04/08 10:23:59;;;;;;;;;;;18.40;41.80;;;;;;22571931;26;20250;-62
2024/04/08 10:34:00;;;;;;;;;;;18.50;41.80;;;;;;22574065;26;19960;-64
2024/04/08 10:44:01;;;;;;;;;;;18.40;40.40;;;;;;22575573;26;20004;-63
2024/04/08 10:54:02;;;;;;;;;;;18.50;41.00;;;;;;22573767;26;19932;-64
2024/04/08 11:04:04;;;;;;;;;;;18.50;43.10;;;;;;22570895;26;19935;-62
2024/04/08 11:14:05;;;;;;;;;;;18.70;42.60;;;;;;22570776;26;19929;-62
2024/04/08 11:24:10;;;;;;;;;;;19.00;44.20;;;;;;22571208;26;19928;-64
2024/04/08 11:34:11;;;;;;;;;;;19.20;40.60;;;;;;22569312;26;19936;-55
2024/04/08 11:44:11;;;;;;;;;;;19.30;42.10;;;;;;22426414;26;20374;-56
2024/04/08 11:54:12;;;;;;;;;;;19.20;43.70;;;;;;22418869;26;19929;-55
2024/04/08 12:04:14;;;;;;;;;;;19.40;43.60;;;;;;22419986;26;19929;-64
2024/04/08 12:14:15;;;;;;;;;;;19.50;43.70;;;;;;22407966;26;19965;-64
2024/04/08 12:24:16;;;;;;;;;;;19.90;44.40;;;;;;22402190;26;19929;-61
2024/04/08 12:34:17;;;;;;;;;;;20.20;44.10;;;;;;22415365;26;19933;-63
2024/04/08 12:44:18;;;;;;;;;;;20.10;44.70;;;;;;22424453;26;19929;-62
2024/04/08 12:54:18;;;;;;;;;;;20.20;45.90;;;;;;22432039;26;19965;-62
2024/04/08 13:04:20;;;;;;;;;;;19.90;46.20;;;;;;22431799;26;19998;-63
2024/04/08 13:14:21;;;;;;;;;;;20.00;45.90;;;;;;22431694;26;19956;-63
2024/04/08 13:24:22;;;;;;;;;;;19.70;47.30;;;;;;22429911;26;20419;-62
2024/04/08 13:34:23;;;;;;;;;;;19.00;53.00;;;;;;22430747;26;19937;-63
2024/04/08 13:44:24;;;;;;;;;;;18.90;50.60;;;;;;22427831;26;19937;-63
2024/04/08 13:54:25;;;;;;;;;;;18.80;49.50;;;;;;22427083;26;19933;-62
2024/04/08 14:04:26;;;;;;;;;;;18.70;50.50;;;;;;22425650;26;20355;-62
2024/04/08 14:14:27;;;;;;;;;;;18.80;50.20;;;;;;22424992;26;19940;-57
2024/04/08 14:24:28;;;;;;;;;;;18.70;50.80;;;;;;22425335;26;19941;-57
2024/04/08 14:34:28;;;;;;;;;;;18.70;51.00;;;;;;22423946;26;19998;-57
2024/04/08 14:44:30;;;;;;;;;;;18.40;52.70;;;;;;22425286;26;19929;-57
2024/04/08 14:54:30;;;;;;;;;;;18.10;53.90;;;;;;22465517;26;19997;-55
2024/04/08 15:04:31;;;;;;;;;;;18.00;55.10;;;;;;22570576;26;19941;-56
2024/04/08 15:14:32;;;;;;;;;;;18.50;53.60;;;;;;22569975;26;19977;-57
2024/04/08 15:24:33;;;;;;;;;;;18.70;52.40;;;;;;22570684;26;20345;-57
2024/04/08 15:34:34;;;;;;;;;;;18.80;52.30;;;;;;22569878;26;19928;-56
2024/04/08 15:44:36;;;;;;;;;;;18.80;52.30;;;;;;22568294;26;20013;-58
2024/04/08 15:54:37;;;;;;;;;;;18.50;52.40;;;;;;22565839;26;19932;-58
2024/04/08 16:04:38;;;;;;;;;;;18.20;52.30;;;;;;22564244;26;19933;-57
2024/04/08 16:14:39;;;;;;;;;;;18.50;55.00;;;;;;22507344;26;19929;-56
2024/04/08 16:24:40;;;;;;;;;;;18.10;52.90;;;;;;22430909;26;19936;-57
2024/04/08 16:34:43;;;;;;;;;;;17.80;52.30;;;;;;22429421;26;19929;-56
2024/04/08 16:44:44;;;;;;;;;;;17.50;53.60;;;;;;22429104;26;20023;-59
2024/04/08 16:54:44;;;;;;;;;;;17.50;54.50;;;;;;22428030;26;19937;-57
2024/04/08 17:04:45;;;;;;;;;;;16.70;62.20;;;;;;22429475;26;19933;-56
2024/04/08 17:14:46;;;;;;;;;;;16.90;63.00;;;;;;22431240;26;19929;-58
2024/04/08 17:24:47;;;;;;;;;;;16.80;61.20;;;;;;22428606;26;20249;-57
2024/04/08 17:34:51;;;;;;;;;;;16.60;58.90;;;;;;22427465;26;19998;-55
2024/04/08 17:44:52;;;;;;;;;;;16.50;55.90;;;;;;22429445;26;19928;-56
2024/04/08 17:54:53;;;;;;;;;;;16.00;58.70;;;;;;22427661;26;19937;-57
2024/04/08 18:04:54;;;;;;;;;;;15.80;61.20;;;;;;22425659;26;19936;-58
2024/04/08 18:14:55;;;;;;;;;;;15.90;62.70;;;;;;22425775;26;19996;-58
2024/04/08 18:24:56;;;;;;;;;;;16.00;59.70;;;;;;22425221;26;19929;-58
2024/04/08 18:34:57;;;;;;;;;;;15.70;60.00;;;;;;22424556;26;19936;-58
2024/04/08 18:44:57;;;;;;;;;;;15.70;60.30;;;;;;22422451;26;19941;-57
2024/04/08 18:54:58;;;;;;;;;;;15.70;58.60;;;;;;22424191;26;20002;-57
2024/04/08 19:05:01;;;;;;;;;;;15.70;56.90;;;;;;22424475;26;19936;-57
2024/04/08 19:15:03;;;;;;;;;;;15.60;55.20;;;;;;22422321;26;19935;-57
2024/04/08 19:25:04;;;;;;;;;;;15.40;51.80;;;;;;22423322;26;20243;-58
2024/04/08 19:35:05;;;;;;;;;;;15.30;52.40;;;;;;22421096;26;19929;-58
2024/04/08 19:45:06;;;;;;;;;;;15.40;50.10;;;;;;22421479;26;19929;-58
2024/04/08 19:55:07;;;;;;;;;;;15.10;50.60;;;;;;22419138;26;19929;-58
2024/04/08 20:05:08;;;;;;;;;;;14.80;50.10;;;;;;22420265;26;19936;-57
2024/04/08 20:15:10;;;;;;;;;;;14.70;50.30;;;;;;22419020;26;19935;-57
2024/04/08 20:25:11;;;;;;;;;;;14.40;49.90;;;;;;22419090;26;20339;-57
2024/04/08 20:35:12;;;;;;;;;;;14.20;47.30;;;;;;22418369;26;19937;-58
2024/04/08 20:45:13;;;;;;;;;;;13.80;48.00;;;;;;22416544;26;20354;-59
2024/04/08 20:55:14;;;;;;;;;;;13.90;49.40;;;;;;22415034;26;19998;-58
2024/04/08 21:05:18;;;;;;;;;;;14.10;49.40;;;;;;22421860;26;19929;-57
2024/04/08 21:15:19;;;;;;;;;;;14.00;49.70;;;;;;22430233;26;20247;-58
2024/04/08 21:25:20;;;;;;;;;;;13.80;49.20;;;;;;22429046;26;19959;-57
2024/04/08 21:35:22;;;;;;;;;;;13.70;49.10;;;;;;22429170;26;19997;-57
2024/04/08 21:45:23;;;;;;;;;;;13.50;47.30;;;;;;22427468;26;19929;-58
2024/04/08 21:55:24;;;;;;;;;;;14.10;45.50;;;;;;22428203;26;20270;-58
2024/04/08 22:05:28;;;;;;;;;;;13.40;47.30;;;;;;22427662;26;19937;-58
2024/04/08 22:15:30;;;;;;;;;;;13.40;47.20;;;;;;22428227;26;20354;-57
2024/04/08 22:25:33;;;;;;;;;;;13.30;48.90;;;;;;22427766;26;19929;-57
2024/04/08 22:35:34;;;;;;;;;;;13.20;48.60;;;;;;22426185;26;19932;-57
2024/04/08 22:45:35;;;;;;;;;;;12.70;47.00;;;;;;22425237;26;19936;-58
2024/04/08 22:55:37;;;;;;;;;;;12.80;48.30;;;;;;22423992;26;19929;-58
2024/04/08 23:05:38;;;;;;;;;;;12.70;47.40;;;;;;22424134;26;19929;-58
2024/04/08 23:15:39;;;;;;;;;;;12.60;49.20;;;;;;22422447;26;20320;-58
2024/04/08 23:25:40;;;;;;;;;;;12.50;49.40;;;;;;22421898;26;19997;-58
2024/04/08 23:35:42;;;;;;;;;;;12.30;48.60;;;;;;22421504;26;19957;-58
2024/04/08 23:45:43;;;;;;;;;;;12.20;48.60;;;;;;22420776;26;19944;-58
2024/04/08 23:55:45;;;;;;;;;;;12.20;50.00;;;;;;22419984;26;19929;-57
